Time;durP1;ratioP1;P1;durP2;ratioP2;P2;SDS_P1;SDS_P2;PMS_P1;PMS_P2;Temp;Humidity;BMP_temperature;BMP_pressure;BME280_temperature;BME280_humidity;BME280_pressure;Samples;Min_cycle;Max_cycle;Signal;HPM_P1;HPM_P2
2022/03/12 00:00:51;;;;;;;6.50;3.87;;;10.80;31.40;;;;;;5054625;28;20463;-80
2022/03/12 00:03:17;;;;;;;6.43;4.67;;;10.80;31.50;;;;;;5055875;28;21125;-80
2022/03/12 00:05:52;;;;;;;7.23;4.00;;;10.80;31.60;;;;;;5055802;28;20780;-80
2022/03/12 00:08:21;;;;;;;8.13;4.77;;;10.70;31.60;;;;;;5054236;28;20417;-80
2022/03/12 00:10:51;;;;;;;7.40;4.20;;;10.70;31.70;;;;;;5055726;28;20897;-81
2022/03/12 00:13:21;;;;;;;7.50;4.27;;;10.80;31.90;;;;;;5094253;22;20496;-81
2022/03/12 00:15:50;;;;;;;5.00;4.20;;;10.80;31.70;;;;;;5075487;28;20416;-81
2022/03/12 00:18:18;;;;;;;7.73;5.10;;;10.80;31.50;;;;;;5057251;28;20506;-81
2022/03/12 00:20:48;;;;;;;6.43;4.37;;;10.80;31.40;;;;;;5057557;28;20465;-80
2022/03/12 00:23:20;;;;;;;6.17;4.87;;;10.80;31.50;;;;;;5048031;28;20495;-81
2022/03/12 00:25:48;;;;;;;4.60;3.70;;;10.80;31.50;;;;;;5055257;28;20463;-81
2022/03/12 00:28:16;;;;;;;7.20;4.40;;;10.70;31.90;;;;;;5037461;28;20936;-81
2022/03/12 00:30:49;;;;;;;5.10;3.97;;;10.80;31.80;;;;;;5055807;28;20420;-81
2022/03/12 00:33:17;;;;;;;6.67;4.30;;;10.70;31.60;;;;;;5037839;28;20531;-80
2022/03/12 00:35:45;;;;;;;6.57;4.40;;;10.80;31.80;;;;;;5037595;28;20426;-82
2022/03/12 00:38:11;;;;;;;6.43;4.63;;;10.80;32.10;;;;;;5037291;28;20417;-81
2022/03/12 00:40:37;;;;;;;6.63;4.47;;;10.70;32.00;;;;;;5053891;28;20529;-82
2022/03/12 00:43:03;;;;;;;6.30;4.30;;;10.70;32.00;;;;;;5038998;28;20239;-79
2022/03/12 00:45:29;;;;;;;6.67;4.63;;;10.70;31.70;;;;;;5055819;28;20441;-82
2022/03/12 00:47:55;;;;;;;5.67;4.27;;;10.70;31.70;;;;;;5054971;28;20169;-81
2022/03/12 00:50:20;;;;;;;7.50;4.83;;;10.70;31.90;;;;;;5055815;28;20173;-82
2022/03/12 00:52:46;;;;;;;5.67;4.53;;;10.60;32.20;;;;;;5037179;28;20195;-82
2022/03/12 00:55:11;;;;;;;9.20;5.00;;;10.60;32.30;;;;;;5053843;28;20180;-81
2022/03/12 00:57:37;;;;;;;8.10;5.03;;;10.50;32.50;;;;;;5054772;28;20176;-80
2022/03/12 01:00:04;;;;;;;6.70;4.80;;;10.60;32.10;;;;;;5053832;28;20175;-80
2022/03/12 01:02:30;;;;;;;6.97;3.70;;;10.60;32.20;;;;;;5054947;28;20206;-80
2022/03/12 01:04:55;;;;;;;7.10;3.80;;;10.50;32.50;;;;;;5055262;28;20485;-80
2022/03/12 01:07:21;;;;;;;5.80;4.03;;;10.50;32.50;;;;;;5055040;28;20175;-80
2022/03/12 01:09:47;;;;;;;6.33;4.50;;;10.60;32.70;;;;;;5037190;28;20271;-81
2022/03/12 01:12:12;;;;;;;6.30;4.23;;;10.50;32.60;;;;;;5055200;28;20180;-80
2022/03/12 01:14:38;;;;;;;6.30;3.57;;;10.60;33.00;;;;;;5037379;28;20724;-79
2022/03/12 01:17:06;;;;;;;5.13;3.73;;;10.60;32.90;;;;;;5037358;28;20716;-79
2022/03/12 01:19:34;;;;;;;7.57;4.40;;;10.60;32.70;;;;;;5053613;28;20172;-82
2022/03/12 01:22:03;;;;;;;7.43;4.70;;;10.50;32.70;;;;;;5036625;28;20468;-79
2022/03/12 01:24:29;;;;;;;6.60;4.43;;;10.50;32.90;;;;;;5038366;28;20481;-79
2022/03/12 01:26:56;;;;;;;8.57;5.23;;;10.50;32.70;;;;;;5036407;28;20410;-79
2022/03/12 01:29:23;;;;;;;6.37;4.33;;;10.50;32.60;;;;;;5037158;28;20422;-81
2022/03/12 01:31:49;;;;;;;5.43;3.60;;;10.60;32.90;;;;;;5036545;28;20505;-81
2022/03/12 01:34:14;;;;;;;6.63;4.00;;;10.50;33.30;;;;;;5036066;28;20965;-82
2022/03/12 01:36:40;;;;;;;5.53;4.20;;;10.50;33.10;;;;;;5053969;28;20254;-81
2022/03/12 01:39:06;;;;;;;4.70;3.50;;;10.50;33.10;;;;;;5036204;28;20178;-81
2022/03/12 01:41:33;;;;;;;6.50;4.93;;;10.50;33.20;;;;;;5053986;28;20738;-81
2022/03/12 01:44:01;;;;;;;6.73;4.30;;;10.50;33.40;;;;;;5036025;28;20199;-81
2022/03/12 01:46:40;;;;;;;8.47;4.60;;;10.50;33.50;;;;;;5036029;28;20418;-81
2022/03/12 01:49:10;;;;;;;7.37;3.93;;;10.50;33.60;;;;;;5053410;28;20493;-80
2022/03/12 01:51:41;;;;;;;9.87;5.43;;;10.50;33.60;;;;;;5055028;28;20406;-79
2022/03/12 01:54:07;;;;;;;7.30;4.30;;;10.50;33.50;;;;;;5037152;28;20466;-79
2022/03/12 01:56:37;;;;;;;8.43;4.50;;;10.50;34.20;;;;;;5045582;28;20446;-79
2022/03/12 01:59:06;;;;;;;4.87;3.60;;;10.50;34.60;;;;;;5046441;28;20436;-80
2022/03/12 02:01:31;;;;;;;7.00;4.40;;;10.50;34.10;;;;;;5035028;28;20995;-79
2022/03/12 02:03:59;;;;;;;6.37;4.30;;;10.40;34.30;;;;;;5035399;28;20428;-79
2022/03/12 02:06:25;;;;;;;7.53;4.30;;;10.40;34.00;;;;;;5016839;28;20186;-79
2022/03/12 02:08:53;;;;;;;6.43;4.20;;;10.40;34.10;;;;;;5016806;28;20433;-81
2022/03/12 02:11:28;;;;;;;6.83;4.20;;;10.50;34.40;;;;;;5016871;28;20187;-80
2022/03/12 02:14:01;;;;;;;6.90;4.77;;;10.40;34.50;;;;;;5034719;28;20543;-79
2022/03/12 02:16:29;;;;;;;4.70;3.93;;;10.40;34.00;;;;;;5016497;28;20919;-81
2022/03/12 02:18:55;;;;;;;7.73;3.90;;;10.40;34.50;;;;;;5015257;28;20825;-81
2022/03/12 02:21:38;;;;;;;7.00;4.57;;;10.40;34.80;;;;;;5033323;28;20489;-81
2022/03/12 02:24:16;;;;;;;4.60;3.70;;;10.40;34.60;;;;;;5015804;28;20442;-83
2022/03/12 02:26:43;;;;;;;6.53;4.80;;;10.30;34.40;;;;;;5015358;28;20433;-82
2022/03/12 02:29:12;;;;;;;7.63;5.10;;;10.40;34.60;;;;;;5015717;28;20429;-83
2022/03/12 02:31:40;;;;;;;6.63;4.30;;;10.30;34.50;;;;;;5015750;28;20433;-82
2022/03/12 02:34:10;;;;;;;7.90;5.17;;;10.30;34.80;;;;;;5015444;28;20472;-82
2022/03/12 02:36:36;;;;;;;6.80;4.70;;;10.30;34.90;;;;;;5032866;28;20418;-80
2022/03/12 02:39:04;;;;;;;7.13;4.60;;;10.40;34.90;;;;;;5032998;28;20965;-81
2022/03/12 02:41:30;;;;;;;9.40;5.70;;;10.30;35.30;;;;;;5033278;28;20493;-82
2022/03/12 02:43:56;;;;;;;6.93;5.20;;;10.30;35.90;;;;;;5033029;28;20428;-81
2022/03/12 02:46:29;;;;;;;7.23;5.50;;;10.20;36.00;;;;;;5033215;28;20269;-82
2022/03/12 02:48:56;;;;;;;7.07;5.80;;;10.20;36.10;;;;;;5016837;28;20211;-80
2022/03/12 02:51:23;;;;;;;9.93;4.93;;;10.10;37.30;;;;;;5035837;28;20409;-81
2022/03/12 02:53:56;;;;;;;6.53;5.73;;;10.00;40.00;;;;;;5036247;28;20453;-79
2022/03/12 02:56:22;;;;;;;11.00;5.70;;;9.80;44.80;;;;;;5018019;28;20510;-80
2022/03/12 02:58:48;;;;;;;10.83;6.80;;;9.40;46.10;;;;;;5017870;28;20435;-80
2022/03/12 03:01:14;;;;;;;24.57;7.80;;;9.10;48.10;;;;;;5018188;28;20517;-80
2022/03/12 03:03:46;;;;;;;16.27;6.00;;;9.00;48.10;;;;;;5035382;28;20242;-79
2022/03/12 03:06:16;;;;;;;11.93;5.90;;;8.80;47.90;;;;;;5017796;28;20415;-81
2022/03/12 03:08:42;;;;;;;11.13;6.73;;;8.80;48.00;;;;;;5035286;28;20413;-79
2022/03/12 03:11:13;;;;;;;10.63;5.53;;;8.70;46.00;;;;;;5035973;28;20419;-79
2022/03/12 03:13:44;;;;;;;8.97;5.27;;;8.70;44.50;;;;;;5034793;28;20457;-80
2022/03/12 03:16:21;;;;;;;11.60;5.60;;;8.70;44.30;;;;;;5017359;28;20481;-80
2022/03/12 03:18:53;;;;;;;9.20;5.90;;;8.80;45.10;;;;;;5035068;28;20407;-80
2022/03/12 03:21:26;;;;;;;8.03;5.50;;;8.90;44.60;;;;;;5035176;28;20483;-80
2022/03/12 03:23:53;;;;;;;12.73;5.37;;;9.00;43.60;;;;;;5017790;28;20841;-79
2022/03/12 03:26:33;;;;;;;9.13;5.17;;;9.20;43.20;;;;;;5034788;28;20426;-81
2022/03/12 03:29:00;;;;;;;9.10;5.00;;;9.30;43.00;;;;;;5035739;28;20418;-80
2022/03/12 03:31:26;;;;;;;7.90;5.07;;;9.30;41.50;;;;;;5035312;28;20411;-79
2022/03/12 03:33:51;;;;;;;10.70;5.00;;;9.40;41.50;;;;;;5017688;28;20529;-80
2022/03/12 03:36:18;;;;;;;7.00;4.47;;;9.40;41.10;;;;;;5017324;28;20183;-80
2022/03/12 03:38:44;;;;;;;5.37;3.10;;;9.50;41.00;;;;;;5034990;28;20199;-80
2022/03/12 03:41:10;;;;;;;5.43;3.40;;;9.50;40.80;;;;;;5017381;28;20458;-79
2022/03/12 03:43:36;;;;;;;5.60;3.57;;;9.60;40.50;;;;;;5017135;28;20962;-80
2022/03/12 03:46:01;;;;;;;8.13;4.20;;;9.60;40.30;;;;;;5017066;28;20640;-81
2022/03/12 03:48:27;;;;;;;8.10;4.00;;;9.60;40.40;;;;;;5016478;28;20643;-80
2022/03/12 03:50:53;;;;;;;4.43;3.00;;;9.70;40.60;;;;;;5016733;28;20234;-79
2022/03/12 03:53:22;;;;;;;5.07;3.30;;;9.70;40.80;;;;;;5016800;28;20286;-79
2022/03/12 03:55:49;;;;;;;6.57;4.00;;;9.70;40.10;;;;;;5034168;28;20426;-80
2022/03/12 03:58:15;;;;;;;6.10;3.80;;;9.70;39.90;;;;;;5016675;28;20450;-79
2022/03/12 04:00:56;;;;;;;9.17;4.23;;;9.70;40.00;;;;;;5017020;28;20481;-79
2022/03/12 04:03:22;;;;;;;6.57;3.47;;;9.70;39.80;;;;;;5034398;28;20825;-79
2022/03/12 04:05:48;;;;;;;4.50;3.47;;;9.70;40.10;;;;;;5016178;28;20439;-80
2022/03/12 04:08:13;;;;;;;5.40;3.30;;;9.70;39.60;;;;;;5016650;28;20788;-79
2022/03/12 04:10:39;;;;;;;6.23;2.97;;;9.60;39.90;;;;;;5016504;28;20322;-79
2022/03/12 04:13:12;;;;;;;5.83;3.67;;;9.60;39.70;;;;;;5016170;28;20235;-79
2022/03/12 04:15:41;;;;;;;5.20;3.40;;;9.60;40.00;;;;;;5034557;28;20157;-80
2022/03/12 04:18:08;;;;;;;6.53;3.50;;;9.60;39.90;;;;;;5015967;28;20426;-79
2022/03/12 04:20:34;;;;;;;5.43;3.60;;;9.60;39.90;;;;;;5016630;28;20517;-79
2022/03/12 04:23:00;;;;;;;4.53;3.13;;;9.60;39.90;;;;;;5016342;28;20445;-80
2022/03/12 04:25:27;;;;;;;5.67;3.80;;;9.60;40.00;;;;;;5016265;28;20426;-79
2022/03/12 04:27:54;;;;;;;6.50;3.53;;;9.60;39.90;;;;;;5034253;28;20415;-79
2022/03/12 04:30:19;;;;;;;7.10;3.63;;;9.60;40.00;;;;;;5034170;28;20410;-80
2022/03/12 04:32:45;;;;;;;11.40;4.20;;;9.60;39.90;;;;;;5016650;28;20938;-79
2022/03/12 04:35:11;;;;;;;6.73;4.10;;;9.60;39.90;;;;;;5017988;28;20176;-81
2022/03/12 04:37:37;;;;;;;5.37;3.30;;;9.60;39.70;;;;;;5018623;28;20230;-81
2022/03/12 04:40:10;;;;;;;5.20;3.40;;;9.60;40.10;;;;;;5037017;28;20502;-81
2022/03/12 04:42:42;;;;;;;7.70;3.30;;;9.60;40.30;;;;;;5039547;28;20466;-82
2022/03/12 04:45:10;;;;;;;5.33;3.30;;;9.60;40.00;;;;;;5022293;28;20403;-82
2022/03/12 04:47:36;;;;;;;6.33;3.70;;;9.60;40.50;;;;;;5022019;28;20414;-81
2022/03/12 04:50:04;;;;;;;7.33;3.73;;;9.50;40.20;;;;;;5022757;28;20423;-82
2022/03/12 04:52:30;;;;;;;7.90;3.80;;;9.50;40.10;;;;;;5021423;28;20787;-81
2022/03/12 04:54:56;;;;;;;6.40;3.40;;;9.50;40.70;;;;;;5039234;28;20437;-81
2022/03/12 04:57:22;;;;;;;7.53;3.70;;;9.40;40.80;;;;;;5021307;28;20184;-81
2022/03/12 04:59:48;;;;;;;6.53;3.90;;;9.40;41.00;;;;;;5039659;28;20468;-80
2022/03/12 05:02:13;;;;;;;6.40;3.40;;;9.40;41.00;;;;;;5039149;28;20200;-82
2022/03/12 05:04:39;;;;;;;7.63;4.20;;;9.50;40.90;;;;;;5021238;28;20212;-82
2022/03/12 05:07:09;;;;;;;6.70;3.70;;;9.40;41.10;;;;;;5038861;28;20178;-79
2022/03/12 05:09:34;;;;;;;6.27;3.70;;;9.40;41.30;;;;;;5038815;28;20191;-79
2022/03/12 05:12:05;;;;;;;7.90;4.00;;;9.40;41.20;;;;;;5038479;28;20501;-81
2022/03/12 05:14:36;;;;;;;8.80;3.87;;;9.30;41.50;;;;;;5020443;28;20833;-80
2022/03/12 05:17:08;;;;;;;8.10;3.47;;;9.30;41.50;;;;;;5039054;28;20810;-82
2022/03/12 05:19:36;;;;;;;6.60;3.73;;;9.30;42.10;;;;;;5020187;28;21068;-79
2022/03/12 05:22:05;;;;;;;7.70;3.23;;;9.20;41.60;;;;;;5035513;28;20521;-79
2022/03/12 05:24:31;;;;;;;7.40;3.80;;;9.20;42.10;;;;;;5017698;28;20536;-80
2022/03/12 05:26:58;;;;;;;8.00;4.00;;;9.10;42.10;;;;;;5034901;28;20414;-79
2022/03/12 05:29:24;;;;;;;5.33;3.30;;;9.10;42.40;;;;;;5035365;28;20484;-79
2022/03/12 05:31:52;;;;;;;8.50;3.90;;;9.10;42.50;;;;;;5017418;28;20423;-79
2022/03/12 05:34:22;;;;;;;6.03;3.90;;;9.10;42.80;;;;;;5017630;28;20439;-79
2022/03/12 05:36:48;;;;;;;7.90;3.40;;;9.00;42.60;;;;;;5016834;28;20468;-79
2022/03/12 05:39:15;;;;;;;6.60;3.60;;;9.00;42.80;;;;;;5017114;28;20431;-79
2022/03/12 05:41:43;;;;;;;9.50;4.17;;;9.00;43.00;;;;;;5016814;28;20469;-79
2022/03/12 05:44:13;;;;;;;7.60;4.67;;;9.00;42.90;;;;;;5035359;28;20985;-80
2022/03/12 05:46:39;;;;;;;7.67;4.00;;;8.90;43.40;;;;;;5034506;28;20418;-79
2022/03/12 05:49:06;;;;;;;5.60;3.53;;;8.90;43.80;;;;;;5016863;28;20917;-79
2022/03/12 05:51:32;;;;;;;5.70;3.30;;;8.80;43.80;;;;;;5016835;28;20426;-79
2022/03/12 05:53:58;;;;;;;5.90;3.90;;;8.70;44.00;;;;;;5015792;28;20442;-79
2022/03/12 05:56:24;;;;;;;5.73;3.80;;;8.70;44.80;;;;;;5016642;28;20473;-79
2022/03/12 05:58:49;;;;;;;7.63;4.13;;;8.70;44.70;;;;;;5016565;28;20430;-79
2022/03/12 06:01:15;;;;;;;10.10;3.37;;;8.70;44.80;;;;;;5016571;28;21012;-81
2022/03/12 06:03:41;;;;;;;6.10;3.50;;;8.70;45.10;;;;;;5016499;28;20268;-79
2022/03/12 06:06:06;;;;;;;7.40;4.40;;;8.70;44.90;;;;;;5016332;28;20184;-79
2022/03/12 06:08:33;;;;;;;8.10;4.00;;;8.70;45.20;;;;;;5016154;28;20278;-81
2022/03/12 06:11:00;;;;;;;5.97;4.10;;;8.60;45.60;;;;;;5017909;28;20188;-79
2022/03/12 06:13:28;;;;;;;6.80;3.97;;;8.60;45.80;;;;;;5086994;22;20632;-82
2022/03/12 06:16:02;;;;;;;7.30;3.97;;;8.60;45.80;;;;;;5096797;28;20444;-82
2022/03/12 06:18:30;;;;;;;4.60;3.20;;;8.60;46.20;;;;;;5097227;28;20483;-80
2022/03/12 06:20:56;;;;;;;5.47;3.70;;;8.50;46.20;;;;;;5096928;28;20456;-80
2022/03/12 06:23:21;;;;;;;5.83;4.17;;;8.60;46.30;;;;;;5097296;28;21006;-80
2022/03/12 06:25:48;;;;;;;8.37;4.73;;;8.60;46.50;;;;;;5096870;28;20443;-81
2022/03/12 06:28:14;;;;;;;6.90;3.87;;;8.60;46.90;;;;;;5095394;28;20657;-80
2022/03/12 06:30:41;;;;;;;4.97;3.00;;;8.60;47.10;;;;;;5096986;28;20415;-80
2022/03/12 06:33:07;;;;;;;8.53;4.60;;;8.70;47.30;;;;;;5096731;28;20408;-80
2022/03/12 06:35:34;;;;;;;6.83;3.93;;;8.70;47.50;;;;;;5096902;28;20411;-80
2022/03/12 06:37:59;;;;;;;6.83;3.90;;;8.70;47.90;;;;;;5096404;28;20429;-81
2022/03/12 06:40:27;;;;;;;7.23;3.63;;;8.70;48.00;;;;;;5097469;28;20409;-80
2022/03/12 06:42:55;;;;;;;7.40;4.63;;;8.80;48.70;;;;;;5098743;28;20169;-80
2022/03/12 06:45:21;;;;;;;6.13;3.80;;;8.80;49.20;;;;;;5098777;28;20511;-80
2022/03/12 06:47:47;;;;;;;8.33;3.93;;;8.80;49.50;;;;;;5098843;28;20421;-80
2022/03/12 06:50:17;;;;;;;7.37;4.80;;;8.90;49.70;;;;;;5099939;28;20486;-80
2022/03/12 06:52:47;;;;;;;6.60;3.90;;;9.00;50.00;;;;;;5098972;28;20198;-80
2022/03/12 06:55:13;;;;;;;8.90;4.17;;;9.00;50.40;;;;;;5098656;28;20482;-80
2022/03/12 06:57:40;;;;;;;5.63;3.53;;;9.10;50.80;;;;;;5099490;28;20907;-80
2022/03/12 07:00:11;;;;;;;8.40;3.97;;;9.10;50.90;;;;;;5098124;28;20847;-80
2022/03/12 07:02:36;;;;;;;4.83;3.57;;;9.20;50.70;;;;;;5098708;28;21042;-80
2022/03/12 07:05:02;;;;;;;5.67;3.53;;;9.30;51.10;;;;;;5097673;28;20436;-80
2022/03/12 07:07:28;;;;;;;7.57;4.17;;;9.30;51.40;;;;;;5097216;28;20182;-80
2022/03/12 07:09:53;;;;;;;8.97;4.10;;;9.40;51.70;;;;;;5096755;28;20194;-80
2022/03/12 07:12:19;;;;;;;5.90;3.27;;;9.50;52.10;;;;;;5079517;28;20610;-81
2022/03/12 07:14:45;;;;;;;5.30;3.60;;;9.60;52.50;;;;;;5079833;28;20298;-79
2022/03/12 07:17:10;;;;;;;5.70;4.00;;;9.60;52.80;;;;;;5077620;28;20722;-80
2022/03/12 07:19:36;;;;;;;6.73;3.90;;;9.70;53.20;;;;;;5077578;28;20175;-80
2022/03/12 07:22:02;;;;;;;7.70;3.93;;;9.70;53.70;;;;;;5077154;28;20218;-80
2022/03/12 07:24:28;;;;;;;6.30;4.33;;;9.80;54.10;;;;;;5077788;28;20248;-80
2022/03/12 07:26:53;;;;;;;7.53;4.57;;;9.90;54.10;;;;;;5080034;28;21233;-80
2022/03/12 07:29:19;;;;;;;11.03;4.10;;;10.00;53.30;;;;;;5077030;28;20547;-80
2022/03/12 07:31:44;;;;;;;6.97;4.00;;;10.00;53.80;;;;;;5072129;28;20175;-80
2022/03/12 07:34:10;;;;;;;5.40;3.60;;;10.00;53.90;;;;;;5071992;28;20309;-79
2022/03/12 07:36:36;;;;;;;6.50;3.73;;;10.10;54.00;;;;;;5071460;28;20183;-79
2022/03/12 07:39:03;;;;;;;6.47;3.90;;;10.00;54.50;;;;;;5071923;28;20417;-80
2022/03/12 07:41:30;;;;;;;6.03;4.13;;;10.10;54.70;;;;;;5069987;28;20210;-80
2022/03/12 07:43:56;;;;;;;7.73;4.30;;;10.20;55.20;;;;;;5072099;28;20982;-80
2022/03/12 07:46:22;;;;;;;7.20;4.17;;;10.20;54.90;;;;;;5071575;28;20413;-79
2022/03/12 07:48:48;;;;;;;9.40;4.03;;;10.30;55.30;;;;;;5070642;28;20417;-80
2022/03/12 07:51:14;;;;;;;7.50;3.63;;;10.40;55.70;;;;;;5072113;28;20187;-79
2022/03/12 07:53:40;;;;;;;7.97;3.83;;;10.40;55.70;;;;;;5070595;28;20499;-80
2022/03/12 07:56:07;;;;;;;6.47;3.73;;;10.50;56.30;;;;;;5073559;28;20210;-79
2022/03/12 07:58:33;;;;;;;7.87;4.20;;;10.60;56.60;;;;;;5087241;28;20200;-80
2022/03/12 08:00:59;;;;;;;7.43;3.50;;;10.70;56.30;;;;;;5091862;28;20894;-80
2022/03/12 08:03:25;;;;;;;7.37;4.00;;;10.80;56.70;;;;;;5090706;28;20464;-80
2022/03/12 08:05:52;;;;;;;5.80;3.87;;;10.80;57.40;;;;;;5091613;28;20214;-79
2022/03/12 08:08:18;;;;;;;5.07;3.50;;;10.80;57.20;;;;;;5090603;28;20424;-79
2022/03/12 08:13:29;;;;;;;6.07;4.17;;;11.00;58.40;;;;;;5091745;28;20489;-79
2022/03/12 08:15:56;;;;;;;6.13;3.67;;;11.00;59.60;;;;;;5090774;28;20436;-80
2022/03/12 08:18:22;;;;;;;9.27;4.93;;;11.10;59.90;;;;;;5087272;28;20424;-80
2022/03/12 08:20:48;;;;;;;6.60;4.33;;;11.20;60.70;;;;;;5075280;28;20555;-80
2022/03/12 08:23:14;;;;;;;6.40;4.13;;;11.30;62.50;;;;;;5075677;28;20487;-80
2022/03/12 08:25:40;;;;;;;7.50;4.00;;;11.50;63.00;;;;;;5075442;28;20504;-80
2022/03/12 08:28:05;;;;;;;5.67;3.23;;;11.50;65.70;;;;;;5075426;28;20409;-80
2022/03/12 08:30:31;;;;;;;6.80;4.07;;;11.70;67.20;;;;;;5075343;28;20179;-79
2022/03/12 08:32:57;;;;;;;6.60;4.03;;;11.80;67.80;;;;;;5075784;28;20171;-80
2022/03/12 08:35:23;;;;;;;6.80;4.20;;;12.00;67.90;;;;;;5075305;28;20236;-80
2022/03/12 08:37:49;;;;;;;9.10;5.13;;;12.10;69.20;;;;;;5075177;28;20413;-81
2022/03/12 08:40:14;;;;;;;6.97;4.70;;;12.30;71.00;;;;;;5073976;28;20417;-80
2022/03/12 08:42:41;;;;;;;8.50;4.17;;;12.40;72.10;;;;;;5075380;28;20650;-81
2022/03/12 08:45:08;;;;;;;7.10;3.77;;;12.50;71.70;;;;;;5083251;28;20203;-81
2022/03/12 08:47:33;;;;;;;9.43;4.53;;;12.60;73.50;;;;;;5082259;28;20440;-81
2022/03/12 08:49:59;;;;;;;6.70;4.03;;;12.70;74.50;;;;;;5081016;28;20421;-80
2022/03/12 08:52:25;;;;;;;6.77;4.30;;;12.90;77.20;;;;;;5082911;28;20412;-80
2022/03/12 08:54:51;;;;;;;7.33;4.00;;;13.00;77.50;;;;;;5082602;28;20191;-81
2022/03/12 08:57:17;;;;;;;5.20;3.67;;;13.20;78.20;;;;;;5082374;28;20178;-80
2022/03/12 08:59:43;;;;;;;7.53;4.60;;;13.40;78.80;;;;;;5083719;28;20224;-80
2022/03/12 09:02:09;;;;;;;6.20;3.20;;;13.60;83.20;;;;;;5082984;28;20256;-80
2022/03/12 09:04:35;;;;;;;5.87;4.10;;;13.80;93.00;;;;;;5083005;28;20430;-80
2022/03/12 09:07:01;;;;;;;7.27;3.20;;;14.00;96.20;;;;;;5081659;28;20822;-81
2022/03/12 09:09:26;;;;;;;5.43;3.00;;;14.20;96.60;;;;;;5082948;28;20167;-80
2022/03/12 09:11:52;;;;;;;5.57;3.60;;;14.50;97.50;;;;;;5083220;28;20652;-81
2022/03/12 09:14:18;;;;;;;4.10;2.97;;;14.80;96.20;;;;;;5082086;28;20213;-80
2022/03/12 09:16:44;;;;;;;5.23;3.03;;;14.90;95.90;;;;;;5082441;28;20217;-80
2022/03/12 09:19:10;;;;;;;6.80;3.17;;;14.80;95.50;;;;;;5082352;28;20167;-80
2022/03/12 09:21:36;;;;;;;5.90;2.90;;;14.70;96.40;;;;;;5080408;28;20206;-81
2022/03/12 09:24:03;;;;;;;6.20;3.93;;;14.70;97.70;;;;;;5077656;28;20663;-81
2022/03/12 09:26:29;;;;;;;7.23;2.90;;;14.90;98.20;;;;;;5084065;28;20423;-82
2022/03/12 09:28:54;;;;;;;6.27;3.23;;;15.00;98.00;;;;;;5074781;28;20785;-81
2022/03/12 09:31:21;;;;;;;5.27;3.30;;;14.90;98.40;;;;;;5075656;28;20417;-82
2022/03/12 09:33:46;;;;;;;4.73;2.83;;;15.20;98.50;;;;;;5075190;28;20199;-81
2022/03/12 09:36:12;;;;;;;7.53;2.80;;;15.30;98.40;;;;;;5075416;28;20514;-82
2022/03/12 09:38:39;;;;;;;6.17;3.00;;;15.50;97.10;;;;;;5075745;28;20171;-82
2022/03/12 09:41:05;;;;;;;5.90;3.17;;;15.40;97.20;;;;;;5074656;28;20252;-82
2022/03/12 09:43:30;;;;;;;5.03;3.10;;;15.40;97.10;;;;;;5073335;28;20854;-82
2022/03/12 09:45:57;;;;;;;4.27;2.70;;;15.30;97.20;;;;;;5074651;28;20172;-83
2022/03/12 09:48:23;;;;;;;6.57;3.10;;;15.10;98.20;;;;;;5091821;28;20178;-82
2022/03/12 09:50:49;;;;;;;5.57;3.20;;;15.30;98.50;;;;;;5094992;28;20412;-82
2022/03/12 09:53:15;;;;;;;3.93;2.33;;;15.50;97.80;;;;;;5098246;28;20404;-82
2022/03/12 09:55:41;;;;;;;4.07;1.90;;;15.50;97.30;;;;;;5092996;28;20800;-82
2022/03/12 09:58:06;;;;;;;3.77;2.57;;;15.60;97.80;;;;;;5087331;28;20187;-83
2022/03/12 10:00:32;;;;;;;5.37;2.30;;;15.70;96.90;;;;;;5097634;28;20178;-81
2022/03/12 10:02:58;;;;;;;7.80;2.97;;;15.90;96.90;;;;;;5112962;28;20549;-83
2022/03/12 10:05:24;;;;;;;7.80;2.67;;;16.00;96.40;;;;;;5078877;28;20457;-83
2022/03/12 10:07:49;;;;;;;4.10;2.37;;;16.60;95.90;;;;;;5072159;28;20245;-83
2022/03/12 10:10:17;;;;;;;4.20;2.17;;;17.60;94.00;;;;;;5072329;28;20764;-83
2022/03/12 10:12:44;;;;;;;4.57;2.80;;;19.90;85.70;;;;;;5075972;28;20186;-83
2022/03/12 10:15:12;;;;;;;3.60;2.10;;;20.60;83.60;;;;;;5074933;28;20990;-82
2022/03/12 10:17:38;;;;;;;2.77;1.40;;;21.70;75.60;;;;;;5087550;28;20435;-82
2022/03/12 10:20:06;;;;;;;4.40;2.07;;;22.10;68.40;;;;;;5088086;28;20618;-81
2022/03/12 10:22:32;;;;;;;3.50;2.20;;;22.90;65.30;;;;;;5087019;28;20201;-83
2022/03/12 10:24:58;;;;;;;4.37;2.60;;;24.00;61.10;;;;;;5086844;28;20474;-82
2022/03/12 10:27:24;;;;;;;4.17;1.97;;;24.80;58.30;;;;;;5089825;28;20420;-83
2022/03/12 10:29:50;;;;;;;3.10;2.00;;;24.90;55.20;;;;;;5090154;28;20194;-82
2022/03/12 10:32:34;;;;;;;3.40;2.10;;;23.90;55.00;;;;;;5094925;28;20595;-83
2022/03/12 10:35:04;;;;;;;3.30;2.07;;;24.30;54.80;;;;;;5084990;22;20599;-66
2022/03/12 10:37:32;;;;;;;5.00;2.47;;;25.10;53.80;;;;;;5086435;28;20436;-66
2022/03/12 10:40:06;;;;;;;3.37;1.97;;;25.50;52.50;;;;;;5090653;28;20419;-68
2022/03/12 10:42:33;;;;;;;3.83;1.87;;;24.80;51.00;;;;;;5091532;28;21016;-67
2022/03/12 10:45:09;;;;;;;5.30;2.20;;;23.30;52.70;;;;;;5084874;28;20437;-67
2022/03/12 10:47:40;;;;;;;3.73;1.60;;;22.70;54.00;;;;;;5093717;28;20452;-66
2022/03/12 10:50:17;;;;;;;3.93;1.80;;;23.30;53.50;;;;;;5099371;28;20411;-66
2022/03/12 10:52:49;;;;;;;3.70;1.77;;;23.90;52.90;;;;;;5091193;28;20434;-66
2022/03/12 10:55:22;;;;;;;4.30;2.10;;;24.60;52.70;;;;;;5091017;28;20428;-66
2022/03/12 10:57:59;;;;;;;5.20;2.20;;;24.30;52.00;;;;;;5087382;28;20454;-67
2022/03/12 11:00:26;;;;;;;3.63;2.20;;;23.90;51.70;;;;;;5090482;28;20412;-66
2022/03/12 11:03:03;;;;;;;3.77;2.30;;;23.50;51.90;;;;;;5086802;28;20491;-66
2022/03/12 11:05:34;;;;;;;3.43;2.00;;;22.90;53.10;;;;;;5071058;28;20870;-66
2022/03/12 11:08:18;;;;;;;4.67;2.53;;;22.10;53.20;;;;;;5070637;28;21021;-66
2022/03/12 11:10:58;;;;;;;3.37;2.17;;;22.00;54.30;;;;;;5070917;28;20999;-66
2022/03/12 11:13:44;;;;;;;3.47;2.00;;;22.20;54.40;;;;;;5070799;28;20428;-67
2022/03/12 11:16:36;;;;;;;3.80;2.57;;;21.80;53.90;;;;;;5070634;28;20441;-66
2022/03/12 11:19:07;;;;;;;3.30;2.00;;;21.40;55.40;;;;;;5083747;28;20413;-66
2022/03/12 11:21:50;;;;;;;3.83;2.23;;;20.90;55.50;;;;;;5085166;28;20452;-66
2022/03/12 11:24:42;;;;;;;5.20;2.80;;;20.30;56.50;;;;;;5090610;28;20511;-65
2022/03/12 11:27:07;;;;;;;4.73;2.23;;;19.90;57.30;;;;;;5090473;28;20436;-66
2022/03/12 11:29:34;;;;;;;3.43;1.97;;;19.60;57.80;;;;;;5090578;28;20469;-66
2022/03/12 11:32:04;;;;;;;3.47;2.20;;;19.50;58.50;;;;;;5090729;28;20186;-66
2022/03/12 11:34:43;;;;;;;3.57;1.80;;;19.20;59.10;;;;;;5090770;28;20451;-65
2022/03/12 11:37:18;;;;;;;5.00;2.30;;;19.30;59.60;;;;;;5090508;28;20534;-66
2022/03/12 11:39:48;;;;;;;4.80;2.17;;;19.40;58.70;;;;;;5090564;28;20461;-66
2022/03/12 11:42:32;;;;;;;3.30;2.40;;;20.10;59.20;;;;;;5090502;28;20455;-66
2022/03/12 11:45:00;;;;;;;4.40;2.40;;;20.40;57.80;;;;;;5090650;28;20416;-66
2022/03/12 11:47:32;;;;;;;3.80;2.30;;;20.90;57.30;;;;;;5090289;28;20440;-66
2022/03/12 11:50:01;;;;;;;3.80;1.80;;;21.50;56.90;;;;;;5090364;28;20914;-66
2022/03/12 11:52:28;;;;;;;4.53;2.20;;;22.50;55.80;;;;;;5089963;28;20478;-66
2022/03/12 11:54:56;;;;;;;4.30;2.03;;;22.80;54.20;;;;;;5090483;28;20420;-66
2022/03/12 11:57:27;;;;;;;4.33;2.10;;;22.40;53.80;;;;;;5090202;28;20867;-66
2022/03/12 11:59:54;;;;;;;3.20;1.87;;;21.60;54.00;;;;;;5090521;28;20416;-66
2022/03/12 12:02:29;;;;;;;3.90;2.37;;;21.10;54.70;;;;;;5090358;28;20513;-67
2022/03/12 12:04:56;;;;;;;3.43;1.70;;;21.40;55.70;;;;;;5090409;28;20419;-66
2022/03/12 12:07:27;;;;;;;3.30;2.03;;;21.90;55.00;;;;;;5090012;28;20444;-66
2022/03/12 12:09:54;;;;;;;3.53;1.80;;;22.20;54.20;;;;;;5090406;28;20473;-67
2022/03/12 12:12:24;;;;;;;3.40;2.00;;;22.00;53.90;;;;;;5090355;28;20416;-67
2022/03/12 12:17:23;;;;;;;3.90;2.23;;;21.50;53.90;;;;;;5047812;28;20501;-65
2022/03/12 12:19:49;;;;;;;3.40;2.00;;;21.70;54.60;;;;;;5050057;28;20453;-64
2022/03/12 12:22:14;;;;;;;3.13;1.50;;;21.50;54.40;;;;;;5050015;28;20569;-64
2022/03/12 12:24:43;;;;;;;3.10;1.83;;;21.00;54.20;;;;;;5050151;28;20186;-64
2022/03/12 12:27:12;;;;;;;3.17;1.83;;;21.10;55.00;;;;;;5049624;28;20202;-65
2022/03/12 12:29:44;;;;;;;2.90;1.67;;;20.90;54.80;;;;;;5050080;28;20415;-64
2022/03/12 12:32:12;;;;;;;3.60;2.03;;;20.80;54.30;;;;;;5049870;28;20414;-65
2022/03/12 12:35:04;;;;;;;3.47;2.20;;;20.90;54.20;;;;;;5049988;28;20516;-64
2022/03/12 12:37:57;;;;;;;3.50;1.70;;;21.90;54.00;;;;;;5049479;28;20522;-64
2022/03/12 12:40:26;;;;;;;3.23;1.70;;;22.30;54.00;;;;;;5049867;28;20418;-65
2022/03/12 12:42:55;;;;;;;3.43;1.80;;;22.30;53.50;;;;;;5049745;28;20462;-64
2022/03/12 12:45:24;;;;;;;4.37;2.00;;;22.90;53.00;;;;;;5049772;28;20419;-64
2022/03/12 12:48:12;;;;;;;3.97;2.00;;;24.10;52.00;;;;;;5049581;28;20439;-65
2022/03/12 12:50:38;;;;;;;3.90;1.70;;;24.10;50.40;;;;;;5049791;28;20414;-65
2022/03/12 12:53:25;;;;;;;2.73;1.30;;;23.10;50.40;;;;;;5049682;28;20426;-65
2022/03/12 12:55:51;;;;;;;2.60;1.73;;;22.40;51.20;;;;;;5049647;28;20418;-64
2022/03/12 12:58:17;;;;;;;3.80;2.03;;;22.10;51.40;;;;;;5049552;28;20997;-64
2022/03/12 13:00:45;;;;;;;2.77;1.57;;;21.60;51.40;;;;;;5049653;28;20179;-64